Les Cayes, Haiti
Current Conditions -  °F | °C
As of 12:56 PM on Friday 28 Nov 2014 (Local Time) from MUGM Reporting Station
Broken Clouds Broken Clouds  
Wind Chill: 31°   Ceiling: 8000
Heat Index: 35°   Visibility: 6mi
Dew Point: 22°   Wind: 10mph
Humidity: 59%   Direction: 150°SSE
Pressure: 29.93"   Gusts: NA
Location:  18.2°N, 73.75°W
Report Text: MUGM 281756Z 15009KT 9999 SCT038 BKN080 BKN280 31/22 A2993 RMK SLP136 CB DSNT W-N T03110222 10328 20250 58024
Loading
Personal Weather Stations






























Interactive Weather Map New forecast layout! Learn more

10-Day Weather Forecast

Advertisements
Track Severe Weather on mobile